sensor_id;sensor_type;location;lat;lon;timestamp;pressure;altitude;pressure_sealevel;temperature;humidity
48848;BME280;36611;51.638;5.784;2022-08-21T00:00:28;101579.31;;;19.59;50.46
48848;BME280;36611;51.638;5.784;2022-08-21T00:02:58;101574.47;;;19.53;50.44
48848;BME280;36611;51.638;5.784;2022-08-21T00:05:26;101583.75;;;19.51;50.65
48848;BME280;36611;51.638;5.784;2022-08-21T00:07:53;101579.63;;;19.47;50.83
48848;BME280;36611;51.638;5.784;2022-08-21T00:10:20;101579.22;;;19.42;50.96
48848;BME280;36611;51.638;5.784;2022-08-21T00:12:47;101580.38;;;19.39;51.00
48848;BME280;36611;51.638;5.784;2022-08-21T00:15:18;101583.25;;;19.38;51.13
48848;BME280;36611;51.638;5.784;2022-08-21T00:17:46;101573.66;;;19.33;50.96
48848;BME280;36611;51.638;5.784;2022-08-21T00:20:14;101580.38;;;19.29;51.11
48848;BME280;36611;51.638;5.784;2022-08-21T00:22:42;101578.09;;;19.25;51.09
48848;BME280;36611;51.638;5.784;2022-08-21T00:25:09;101576.38;;;19.24;51.35
48848;BME280;36611;51.638;5.784;2022-08-21T00:27:36;101562.34;;;19.19;51.11
48848;BME280;36611;51.638;5.784;2022-08-21T00:30:05;101570.94;;;19.14;51.30
48848;BME280;36611;51.638;5.784;2022-08-21T00:32:33;101569.53;;;19.10;51.28
48848;BME280;36611;51.638;5.784;2022-08-21T00:35:00;101567.25;;;19.05;51.68
48848;BME280;36611;51.638;5.784;2022-08-21T00:37:26;101565.53;;;19.04;51.60
48848;BME280;36611;51.638;5.784;2022-08-21T00:39:55;101567.53;;;19.02;51.84
48848;BME280;36611;51.638;5.784;2022-08-21T00:42:22;101565.25;;;18.98;51.71
48848;BME280;36611;51.638;5.784;2022-08-21T00:44:50;101562.66;;;18.96;51.79
48848;BME280;36611;51.638;5.784;2022-08-21T00:47:18;101568.41;;;18.93;52.11
48848;BME280;36611;51.638;5.784;2022-08-21T00:49:45;101561.25;;;18.92;52.01
48848;BME280;36611;51.638;5.784;2022-08-21T00:52:21;101563.97;;;18.92;52.01
48848;BME280;36611;51.638;5.784;2022-08-21T00:54:49;101556.09;;;18.89;51.86
48848;BME280;36611;51.638;5.784;2022-08-21T00:57:23;101559.97;;;18.87;51.78
48848;BME280;36611;51.638;5.784;2022-08-21T00:59:56;101557.09;;;18.88;51.96
48848;BME280;36611;51.638;5.784;2022-08-21T01:02:24;101564.25;;;18.89;52.42
48848;BME280;36611;51.638;5.784;2022-08-21T01:04:51;101554.94;;;18.92;52.20
48848;BME280;36611;51.638;5.784;2022-08-21T01:07:18;101566.53;;;18.94;52.18
48848;BME280;36611;51.638;5.784;2022-08-21T01:09:48;101564.53;;;18.96;52.25
48848;BME280;36611;51.638;5.784;2022-08-21T01:12:15;101559.09;;;18.96;52.18
48848;BME280;36611;51.638;5.784;2022-08-21T01:14:42;101564.69;;;18.94;52.22
48848;BME280;36611;51.638;5.784;2022-08-21T01:17:10;101565.84;;;18.92;52.30
48848;BME280;36611;51.638;5.784;2022-08-21T01:19:39;101560.81;;;18.87;52.06
48848;BME280;36611;51.638;5.784;2022-08-21T01:22:06;101560.25;;;18.84;52.05
48848;BME280;36611;51.638;5.784;2022-08-21T01:24:34;101570.72;;;18.79;52.15
48848;BME280;36611;51.638;5.784;2022-08-21T01:27:02;101569.84;;;18.78;52.55
48848;BME280;36611;51.638;5.784;2022-08-21T01:29:31;101566.84;;;18.81;52.45
48848;BME280;36611;51.638;5.784;2022-08-21T01:32:04;101562.97;;;18.84;52.22
48848;BME280;36611;51.638;5.784;2022-08-21T01:34:37;101561.97;;;18.85;52.15
48848;BME280;36611;51.638;5.784;2022-08-21T01:37:05;101563.28;;;18.81;52.55
48848;BME280;36611;51.638;5.784;2022-08-21T01:39:32;101563.56;;;18.78;52.37
48848;BME280;36611;51.638;5.784;2022-08-21T01:41:58;101555.84;;;18.73;52.40
48848;BME280;36611;51.638;5.784;2022-08-21T01:44:26;101558.13;;;18.68;52.48
48848;BME280;36611;51.638;5.784;2022-08-21T01:46:53;101562.13;;;18.64;52.35
48848;BME280;36611;51.638;5.784;2022-08-21T01:49:20;101555.97;;;18.62;52.50
48848;BME280;36611;51.638;5.784;2022-08-21T01:51:47;101556.94;;;18.61;52.30
48848;BME280;36611;51.638;5.784;2022-08-21T01:54:14;101560.41;;;18.63;52.43
48848;BME280;36611;51.638;5.784;2022-08-21T01:56:47;101560.28;;;18.64;52.71
48848;BME280;36611;51.638;5.784;2022-08-21T01:59:14;101561.13;;;18.65;52.82
48848;BME280;36611;51.638;5.784;2022-08-21T02:01:41;101557.56;;;18.64;52.85
48848;BME280;36611;51.638;5.784;2022-08-21T02:04:10;101560.13;;;18.66;52.65
48848;BME280;36611;51.638;5.784;2022-08-21T02:06:37;101559.13;;;18.67;52.49
48848;BME280;36611;51.638;5.784;2022-08-21T02:09:05;101556.13;;;18.70;52.60
48848;BME280;36611;51.638;5.784;2022-08-21T02:11:33;101551.69;;;18.69;52.80
48848;BME280;36611;51.638;5.784;2022-08-21T02:14:04;101554.84;;;18.64;52.52
48848;BME280;36611;51.638;5.784;2022-08-21T02:16:31;101550.66;;;18.60;52.49
48848;BME280;36611;51.638;5.784;2022-08-21T02:18:58;101550.78;;;18.59;52.95
48848;BME280;36611;51.638;5.784;2022-08-21T02:21:25;101548.06;;;18.59;52.91
48848;BME280;36611;51.638;5.784;2022-08-21T02:23:57;101540.78;;;18.59;52.74
48848;BME280;36611;51.638;5.784;2022-08-21T02:26:24;101535.59;;;18.56;52.60
48848;BME280;36611;51.638;5.784;2022-08-21T02:28:50;101543.31;;;18.51;53.05
48848;BME280;36611;51.638;5.784;2022-08-21T02:31:17;101537.59;;;18.45;52.94
48848;BME280;36611;51.638;5.784;2022-08-21T02:33:44;101534.44;;;18.39;53.00
48848;BME280;36611;51.638;5.784;2022-08-21T02:36:11;101535.44;;;18.38;52.67
48848;BME280;36611;51.638;5.784;2022-08-21T02:38:39;101535.31;;;18.40;52.83
48848;BME280;36611;51.638;5.784;2022-08-21T02:41:12;101538.75;;;18.42;53.07
48848;BME280;36611;51.638;5.784;2022-08-21T02:43:40;101537.75;;;18.43;53.24
48848;BME280;36611;51.638;5.784;2022-08-21T02:46:08;101531.44;;;18.42;53.01
48848;BME280;36611;51.638;5.784;2022-08-21T02:48:35;101528.00;;;18.40;53.07
48848;BME280;36611;51.638;5.784;2022-08-21T02:51:09;101526.56;;;18.36;53.22
48848;BME280;36611;51.638;5.784;2022-08-21T02:53:39;101521.41;;;18.33;53.17
48848;BME280;36611;51.638;5.784;2022-08-21T02:56:10;101526.56;;;18.36;53.12
48848;BME280;36611;51.638;5.784;2022-08-21T02:58:41;101521.84;;;18.38;53.42
48848;BME280;36611;51.638;5.784;2022-08-21T03:01:09;101521.41;;;18.43;53.48
48848;BME280;36611;51.638;5.784;2022-08-21T03:03:42;101517.56;;;18.46;53.31
48848;BME280;36611;51.638;5.784;2022-08-21T03:06:11;101511.97;;;18.47;53.37
48848;BME280;36611;51.638;5.784;2022-08-21T03:08:39;101519.41;;;18.45;53.24
48848;BME280;36611;51.638;5.784;2022-08-21T03:11:07;101519.69;;;18.42;53.15
48848;BME280;36611;51.638;5.784;2022-08-21T03:13:39;101515.13;;;18.42;53.50
48848;BME280;36611;51.638;5.784;2022-08-21T03:16:06;101506.97;;;18.42;53.22
48848;BME280;36611;51.638;5.784;2022-08-21T03:18:35;101512.41;;;18.42;53.47
48848;BME280;36611;51.638;5.784;2022-08-21T03:21:03;101502.53;;;18.41;53.12
48848;BME280;36611;51.638;5.784;2022-08-21T03:23:30;101505.09;;;18.43;53.38
48848;BME280;36611;51.638;5.784;2022-08-21T03:25:58;101519.56;;;18.43;53.26
48848;BME280;36611;51.638;5.784;2022-08-21T03:28:25;101518.56;;;18.45;53.04
48848;BME280;36611;51.638;5.784;2022-08-21T03:30:52;101511.41;;;18.43;53.28
48848;BME280;36611;51.638;5.784;2022-08-21T03:33:23;101514.13;;;18.43;53.32
48848;BME280;36611;51.638;5.784;2022-08-21T03:36:03;101514.56;;;18.39;52.95
48848;BME280;36611;51.638;5.784;2022-08-21T03:38:32;101511.41;;;18.34;53.01
48848;BME280;36611;51.638;5.784;2022-08-21T03:41:00;101511.97;;;18.28;52.90
48848;BME280;36611;51.638;5.784;2022-08-21T03:43:30;101508.25;;;18.19;52.95
48848;BME280;36611;51.638;5.784;2022-08-21T03:46:00;101514.25;;;18.13;52.94
48848;BME280;36611;51.638;5.784;2022-08-21T03:48:27;101512.09;;;18.07;53.11
48848;BME280;36611;51.638;5.784;2022-08-21T03:50:54;101513.66;;;18.00;53.11
48848;BME280;36611;51.638;5.784;2022-08-21T03:53:25;101511.50;;;17.94;53.08
48848;BME280;36611;51.638;5.784;2022-08-21T03:55:52;101518.09;;;17.91;53.42
48848;BME280;36611;51.638;5.784;2022-08-21T03:58:22;101518.50;;;17.87;53.27
48848;BME280;36611;51.638;5.784;2022-08-21T04:00:54;101514.31;;;17.83;53.40
48848;BME280;36611;51.638;5.784;2022-08-21T04:03:26;101516.47;;;17.79;53.47
48848;BME280;36611;51.638;5.784;2022-08-21T04:05:52;101509.72;;;17.73;53.40
48848;BME280;36611;51.638;5.784;2022-08-21T04:08:19;101514.56;;;17.70;53.95
48848;BME280;36611;51.638;5.784;2022-08-21T04:10:48;101515.81;;;17.66;53.84
48848;BME280;36611;51.638;5.784;2022-08-21T04:13:17;101512.53;;;17.62;53.88
48848;BME280;36611;51.638;5.784;2022-08-21T04:15:44;101505.50;;;17.60;54.13
48848;BME280;36611;51.638;5.784;2022-08-21T04:18:11;101514.06;;;17.55;54.05
48848;BME280;36611;51.638;5.784;2022-08-21T04:20:38;101502.91;;;17.48;54.33
48848;BME280;36611;51.638;5.784;2022-08-21T04:23:10;101504.19;;;17.44;54.55
48848;BME280;36611;51.638;5.784;2022-08-21T04:25:36;101502.59;;;17.42;54.24
48848;BME280;36611;51.638;5.784;2022-08-21T04:28:03;101509.03;;;17.41;54.71
48848;BME280;36611;51.638;5.784;2022-08-21T04:30:30;101504.84;;;17.37;54.94
48848;BME280;36611;51.638;5.784;2022-08-21T04:32:57;101509.84;;;17.32;54.43
48848;BME280;36611;51.638;5.784;2022-08-21T04:35:27;101517.66;;;17.25;54.65
48848;BME280;36611;51.638;5.784;2022-08-21T04:37:54;101513.78;;;17.18;54.70
48848;BME280;36611;51.638;5.784;2022-08-21T04:40:23;101510.47;;;17.14;54.79
48848;BME280;36611;51.638;5.784;2022-08-21T04:43:04;101505.19;;;17.13;55.38
48848;BME280;36611;51.638;5.784;2022-08-21T04:45:48;101512.34;;;17.14;55.32
48848;BME280;36611;51.638;5.784;2022-08-21T04:48:17;101515.78;;;17.16;55.14
48848;BME280;36611;51.638;5.784;2022-08-21T04:53:36;101518.34;;;17.18;55.38
48848;BME280;36611;51.638;5.784;2022-08-21T04:56:06;101525.50;;;17.19;55.35
48848;BME280;36611;51.638;5.784;2022-08-21T04:58:36;101520.19;;;17.17;55.65
48848;BME280;36611;51.638;5.784;2022-08-21T05:01:04;101531.19;;;17.15;55.73
48848;BME280;36611;51.638;5.784;2022-08-21T05:03:34;101533.78;;;17.17;55.68
48848;BME280;36611;51.638;5.784;2022-08-21T05:06:08;101536.34;;;17.19;55.69
48848;BME280;36611;51.638;5.784;2022-08-21T05:08:37;101545.09;;;17.22;55.68
48848;BME280;36611;51.638;5.784;2022-08-21T05:11:04;101542.81;;;17.27;55.80
48848;BME280;36611;51.638;5.784;2022-08-21T05:13:36;101538.00;;;17.31;55.78
48848;BME280;36611;51.638;5.784;2022-08-21T05:16:03;101534.00;;;17.35;55.89
48848;BME280;36611;51.638;5.784;2022-08-21T05:18:29;101538.44;;;17.36;55.55
48848;BME280;36611;51.638;5.784;2022-08-21T05:20:56;101534.72;;;17.37;55.75
48848;BME280;36611;51.638;5.784;2022-08-21T05:23:25;101537.44;;;17.37;55.82
48848;BME280;36611;51.638;5.784;2022-08-21T05:25:52;101544.72;;;17.36;55.92
48848;BME280;36611;51.638;5.784;2022-08-21T05:28:19;101543.72;;;17.37;55.91
48848;BME280;36611;51.638;5.784;2022-08-21T05:30:46;101551.75;;;17.39;55.94
48848;BME280;36611;51.638;5.784;2022-08-21T05:33:14;101545.31;;;17.40;56.03
48848;BME280;36611;51.638;5.784;2022-08-21T05:35:41;101540.59;;;17.42;56.12
48848;BME280;36611;51.638;5.784;2022-08-21T05:38:08;101546.63;;;17.45;56.10
48848;BME280;36611;51.638;5.784;2022-08-21T05:40:44;101549.94;;;17.49;56.27
48848;BME280;36611;51.638;5.784;2022-08-21T05:43:12;101554.09;;;17.53;56.71
48848;BME280;36611;51.638;5.784;2022-08-21T05:45:39;101559.25;;;17.56;56.49
48848;BME280;36611;51.638;5.784;2022-08-21T05:48:19;101559.84;;;17.60;56.97
48848;BME280;36611;51.638;5.784;2022-08-21T05:50:48;101564.84;;;17.64;57.04
48848;BME280;36611;51.638;5.784;2022-08-21T05:53:20;101564.34;;;17.70;56.88
48848;BME280;36611;51.638;5.784;2022-08-21T05:55:47;101559.34;;;17.75;56.79
48848;BME280;36611;51.638;5.784;2022-08-21T05:58:17;101561.66;;;17.80;56.95
48848;BME280;36611;51.638;5.784;2022-08-21T06:00:45;101561.13;;;17.86;57.26
48848;BME280;36611;51.638;5.784;2022-08-21T06:03:22;101566.00;;;17.92;57.16
48848;BME280;36611;51.638;5.784;2022-08-21T06:05:51;101559.16;;;17.98;57.44
48848;BME280;36611;51.638;5.784;2022-08-21T06:08:19;101556.88;;;18.03;57.85
48848;BME280;36611;51.638;5.784;2022-08-21T06:10:47;101557.91;;;18.12;58.00
48848;BME280;36611;51.638;5.784;2022-08-21T06:13:19;101558.75;;;18.22;57.71
48848;BME280;36611;51.638;5.784;2022-08-21T06:15:47;101561.50;;;18.31;57.73
48848;BME280;36611;51.638;5.784;2022-08-21T06:18:15;101561.50;;;18.41;58.12
48848;BME280;36611;51.638;5.784;2022-08-21T06:20:42;101562.94;;;18.55;58.29
48848;BME280;36611;51.638;5.784;2022-08-21T06:23:10;101561.00;;;18.66;58.23
48848;BME280;36611;51.638;5.784;2022-08-21T06:25:37;101562.13;;;18.83;58.07
48848;BME280;36611;51.638;5.784;2022-08-21T06:28:07;101568.69;;;19.00;58.31
48848;BME280;36611;51.638;5.784;2022-08-21T06:30:35;101559.91;;;19.16;58.13
48848;BME280;36611;51.638;5.784;2022-08-21T06:35:33;101562.28;;;19.48;58.13
48848;BME280;36611;51.638;5.784;2022-08-21T06:38:00;101577.72;;;19.66;57.92
48848;BME280;36611;51.638;5.784;2022-08-21T06:40:27;101567.72;;;19.85;58.08
48848;BME280;36611;51.638;5.784;2022-08-21T06:42:56;101567.91;;;20.01;57.74
48848;BME280;36611;51.638;5.784;2022-08-21T06:45:24;101567.28;;;20.17;57.62
48848;BME280;36611;51.638;5.784;2022-08-21T06:47:53;101567.59;;;20.31;57.86
48848;BME280;36611;51.638;5.784;2022-08-21T06:50:20;101560.06;;;20.43;57.70
48848;BME280;36611;51.638;5.784;2022-08-21T06:52:46;101564.13;;;20.57;57.37
48848;BME280;36611;51.638;5.784;2022-08-21T06:55:14;101562.72;;;20.71;57.18
48848;BME280;36611;51.638;5.784;2022-08-21T06:57:49;101564.06;;;20.84;57.27
48848;BME280;36611;51.638;5.784;2022-08-21T07:00:18;101566.22;;;20.99;57.04
48848;BME280;36611;51.638;5.784;2022-08-21T07:02:45;101568.19;;;21.14;56.96
48848;BME280;36611;51.638;5.784;2022-08-21T07:05:12;101569.19;;;21.31;57.14
48848;BME280;36611;51.638;5.784;2022-08-21T07:07:43;101565.22;;;21.51;56.76
48848;BME280;36611;51.638;5.784;2022-08-21T07:10:10;101566.00;;;21.70;56.77
48848;BME280;36611;51.638;5.784;2022-08-21T07:12:48;101564.38;;;21.85;56.08
48848;BME280;36611;51.638;5.784;2022-08-21T07:15:16;101552.59;;;21.93;55.72
48848;BME280;36611;51.638;5.784;2022-08-21T07:17:43;101552.78;;;21.99;55.66
48848;BME280;36611;51.638;5.784;2022-08-21T07:20:10;101558.84;;;22.11;55.55
48848;BME280;36611;51.638;5.784;2022-08-21T07:22:38;101558.38;;;22.24;55.71
48848;BME280;36611;51.638;5.784;2022-08-21T07:25:06;101560.81;;;22.35;55.41
48848;BME280;36611;51.638;5.784;2022-08-21T07:27:33;101559.47;;;22.47;55.41
48848;BME280;36611;51.638;5.784;2022-08-21T07:30:00;101561.53;;;22.61;54.92
48848;BME280;36611;51.638;5.784;2022-08-21T07:32:27;101555.53;;;22.74;55.05
48848;BME280;36611;51.638;5.784;2022-08-21T07:34:55;101552.31;;;22.87;54.92
48848;BME280;36611;51.638;5.784;2022-08-21T07:37:21;101550.94;;;22.99;54.35
48848;BME280;36611;51.638;5.784;2022-08-21T07:39:48;101561.41;;;23.11;54.41
48848;BME280;36611;51.638;5.784;2022-08-21T07:42:15;101551.78;;;23.24;54.18
48848;BME280;36611;51.638;5.784;2022-08-21T07:44:43;101546.44;;;23.38;53.96
48848;BME280;36611;51.638;5.784;2022-08-21T07:47:10;101558.72;;;23.51;53.88
48848;BME280;36611;51.638;5.784;2022-08-21T07:49:37;101558.56;;;23.60;53.50
48848;BME280;36611;51.638;5.784;2022-08-21T07:52:04;101556.63;;;23.69;53.50
48848;BME280;36611;51.638;5.784;2022-08-21T07:54:30;101554.22;;;23.74;53.28
48848;BME280;36611;51.638;5.784;2022-08-21T07:57:00;101550.63;;;23.82;53.30
48848;BME280;36611;51.638;5.784;2022-08-21T07:59:27;101540.81;;;23.87;53.10
48848;BME280;36611;51.638;5.784;2022-08-21T08:01:54;101551.06;;;23.93;52.95
48848;BME280;36611;51.638;5.784;2022-08-21T08:04:25;101552.44;;;23.97;52.97
48848;BME280;36611;51.638;5.784;2022-08-21T08:06:52;101555.84;;;23.99;52.72
48848;BME280;36611;51.638;5.784;2022-08-21T08:09:19;101553.78;;;24.01;52.62
48848;BME280;36611;51.638;5.784;2022-08-21T08:11:46;101552.03;;;24.08;52.39
48848;BME280;36611;51.638;5.784;2022-08-21T08:14:17;101549.06;;;24.18;52.43
48848;BME280;36611;51.638;5.784;2022-08-21T08:16:43;101552.44;;;24.28;52.61
48848;BME280;36611;51.638;5.784;2022-08-21T08:19:10;101551.47;;;24.44;52.41
48848;BME280;36611;51.638;5.784;2022-08-21T08:21:37;101545.91;;;24.60;51.98
48848;BME280;36611;51.638;5.784;2022-08-21T08:24:04;101543.38;;;24.74;52.09
48848;BME280;36611;51.638;5.784;2022-08-21T08:26:45;101555.09;;;24.90;51.79
48848;BME280;36611;51.638;5.784;2022-08-21T08:29:19;101552.09;;;25.00;51.58
48848;BME280;36611;51.638;5.784;2022-08-21T08:31:45;101548.72;;;25.13;51.38
48848;BME280;36611;51.638;5.784;2022-08-21T08:34:12;101542.56;;;25.25;51.12
48848;BME280;36611;51.638;5.784;2022-08-21T08:36:51;101550.00;;;25.40;50.77
48848;BME280;36611;51.638;5.784;2022-08-21T08:39:17;101540.25;;;25.52;50.71
48848;BME280;36611;51.638;5.784;2022-08-21T08:44:56;101532.16;;;25.65;50.22
48848;BME280;36611;51.638;5.784;2022-08-21T08:47:24;101528.69;;;25.71;49.95
48848;BME280;36611;51.638;5.784;2022-08-21T08:49:58;101523.47;;;25.76;49.79
48848;BME280;36611;51.638;5.784;2022-08-21T08:52:35;101524.78;;;25.80;49.29
48848;BME280;36611;51.638;5.784;2022-08-21T08:55:13;101514.44;;;25.82;49.43
48848;BME280;36611;51.638;5.784;2022-08-21T08:57:44;101516.69;;;25.93;49.46
48848;BME280;36611;51.638;5.784;2022-08-21T09:00:18;101514.84;;;26.15;48.98
48848;BME280;36611;51.638;5.784;2022-08-21T09:02:46;101509.28;;;26.30;49.06
48848;BME280;36611;51.638;5.784;2022-08-21T09:05:25;101504.59;;;26.45;48.74
48848;BME280;36611;51.638;5.784;2022-08-21T09:10:59;101507.94;;;26.83;47.84
48848;BME280;36611;51.638;5.784;2022-08-21T09:13:51;101510.44;;;26.78;47.75
48848;BME280;36611;51.638;5.784;2022-08-21T09:26:12;101502.22;;;26.64;46.64
48848;BME280;36611;51.638;5.784;2022-08-21T09:28:39;101502.47;;;26.69;46.73
48848;BME280;36611;51.638;5.784;2022-08-21T09:31:22;101500.66;;;26.76;46.44
48848;BME280;36611;51.638;5.784;2022-08-21T09:33:59;101504.72;;;26.80;46.08
48848;BME280;36611;51.638;5.784;2022-08-21T09:39:00;101502.03;;;26.86;45.68
48848;BME280;36611;51.638;5.784;2022-08-21T09:41:29;101499.91;;;26.88;45.61
48848;BME280;36611;51.638;5.784;2022-08-21T09:43:58;101508.25;;;26.95;45.60
48848;BME280;36611;51.638;5.784;2022-08-21T09:46:26;101505.81;;;27.07;45.39
48848;BME280;36611;51.638;5.784;2022-08-21T09:48:58;101506.75;;;27.20;45.35
48848;BME280;36611;51.638;5.784;2022-08-21T09:51:35;101504.97;;;27.41;45.23
48848;BME280;36611;51.638;5.784;2022-08-21T09:59:31;101498.88;;;27.87;44.31
48848;BME280;36611;51.638;5.784;2022-08-21T10:02:31;101508.22;;;27.92;43.89
48848;BME280;36611;51.638;5.784;2022-08-21T10:04:59;101509.75;;;28.01;43.77
48848;BME280;36611;51.638;5.784;2022-08-21T10:07:29;101509.78;;;28.08;43.52
48848;BME280;36611;51.638;5.784;2022-08-21T10:10:13;101505.75;;;28.10;42.77
48848;BME280;36611;51.638;5.784;2022-08-21T10:12:58;101491.50;;;28.13;42.62
48848;BME280;36611;51.638;5.784;2022-08-21T10:18:33;101489.41;;;28.15;42.31
48848;BME280;36611;51.638;5.784;2022-08-21T10:21:18;101494.06;;;28.15;42.20
48848;BME280;36611;51.638;5.784;2022-08-21T10:24:19;101496.41;;;28.18;42.25
48848;BME280;36611;51.638;5.784;2022-08-21T10:32:21;101493.13;;;28.42;41.91
48848;BME280;36611;51.638;5.784;2022-08-21T10:46:34;101490.56;;;28.74;40.55
48848;BME280;36611;51.638;5.784;2022-08-21T10:49:17;101491.88;;;28.85;40.40
48848;BME280;36611;51.638;5.784;2022-08-21T10:57:22;101492.06;;;29.23;40.12
48848;BME280;36611;51.638;5.784;2022-08-21T11:00:08;101485.00;;;29.33;39.73
48848;BME280;36611;51.638;5.784;2022-08-21T11:02:42;101494.81;;;29.36;39.86
48848;BME280;36611;51.638;5.784;2022-08-21T11:05:17;101489.69;;;29.39;39.49
48848;BME280;36611;51.638;5.784;2022-08-21T11:07:50;101490.13;;;29.36;38.94
48848;BME280;36611;51.638;5.784;2022-08-21T11:10:46;101496.09;;;29.27;38.95
48848;BME280;36611;51.638;5.784;2022-08-21T11:13:47;101491.66;;;29.13;39.02
48848;BME280;36611;51.638;5.784;2022-08-21T11:16:47;101491.03;;;29.04;38.62
48848;BME280;36611;51.638;5.784;2022-08-21T11:19:33;101483.38;;;28.99;38.62
48848;BME280;36611;51.638;5.784;2022-08-21T11:22:28;101484.03;;;29.01;38.50
48848;BME280;36611;51.638;5.784;2022-08-21T11:27:50;101481.22;;;29.15;38.50
48848;BME280;36611;51.638;5.784;2022-08-21T11:30:18;101478.25;;;29.23;38.25
48848;BME280;36611;51.638;5.784;2022-08-21T11:35:30;101480.78;;;29.24;37.68
48848;BME280;36611;51.638;5.784;2022-08-21T11:38:35;101479.31;;;29.22;37.51
48848;BME280;36611;51.638;5.784;2022-08-21T11:41:17;101478.22;;;29.29;37.79
48848;BME280;36611;51.638;5.784;2022-08-21T11:46:31;101474.38;;;29.37;37.67
48848;BME280;36611;51.638;5.784;2022-08-21T11:54:59;101468.66;;;29.19;37.17
48848;BME280;36611;51.638;5.784;2022-08-21T11:57:36;101464.22;;;29.11;37.18
48848;BME280;36611;51.638;5.784;2022-08-21T12:00:12;101463.16;;;29.12;36.97
48848;BME280;36611;51.638;5.784;2022-08-21T12:02:45;101468.03;;;29.17;37.05
48848;BME280;36611;51.638;5.784;2022-08-21T12:05:36;101478.25;;;29.23;36.98
48848;BME280;36611;51.638;5.784;2022-08-21T12:10:59;101476.28;;;29.36;37.15
48848;BME280;36611;51.638;5.784;2022-08-21T12:13:32;101483.09;;;29.47;36.72
48848;BME280;36611;51.638;5.784;2022-08-21T12:16:14;101487.75;;;29.53;36.71
48848;BME280;36611;51.638;5.784;2022-08-21T12:18:42;101484.31;;;29.58;36.77
48848;BME280;36611;51.638;5.784;2022-08-21T12:21:25;101483.66;;;29.62;36.32
48848;BME280;36611;51.638;5.784;2022-08-21T12:24:02;101481.09;;;29.74;36.12
48848;BME280;36611;51.638;5.784;2022-08-21T12:26:35;101480.84;;;29.82;35.95
48848;BME280;36611;51.638;5.784;2022-08-21T12:29:10;101478.03;;;29.89;35.89
48848;BME280;36611;51.638;5.784;2022-08-21T12:31:48;101478.25;;;29.87;35.51
48848;BME280;36611;51.638;5.784;2022-08-21T12:34:16;101483.84;;;29.81;35.78
48848;BME280;36611;51.638;5.784;2022-08-21T12:36:49;101480.88;;;29.76;35.50
48848;BME280;36611;51.638;5.784;2022-08-21T12:39:26;101481.50;;;29.71;35.76
48848;BME280;36611;51.638;5.784;2022-08-21T12:41:58;101491.50;;;29.72;35.56
48848;BME280;36611;51.638;5.784;2022-08-21T12:44:33;101486.81;;;29.72;35.34
48848;BME280;36611;51.638;5.784;2022-08-21T12:47:12;101481.94;;;29.75;35.41
48848;BME280;36611;51.638;5.784;2022-08-21T12:52:34;101478.66;;;29.91;35.10
48848;BME280;36611;51.638;5.784;2022-08-21T12:55:13;101473.31;;;29.96;34.99
48848;BME280;36611;51.638;5.784;2022-08-21T12:57:42;101476.47;;;30.06;35.09
48848;BME280;36611;51.638;5.784;2022-08-21T13:00:11;101476.63;;;30.18;34.52
48848;BME280;36611;51.638;5.784;2022-08-21T13:02:45;101478.91;;;30.27;34.11
48848;BME280;36611;51.638;5.784;2022-08-21T13:05:16;101474.84;;;30.30;34.08
48848;BME280;36611;51.638;5.784;2022-08-21T13:07:47;101469.97;;;30.25;33.97
48848;BME280;36611;51.638;5.784;2022-08-21T13:10:24;101471.44;;;30.28;34.38
48848;BME280;36611;51.638;5.784;2022-08-21T13:12:56;101468.16;;;30.38;34.01
48848;BME280;36611;51.638;5.784;2022-08-21T13:15:33;101461.47;;;30.52;34.08
48848;BME280;36611;51.638;5.784;2022-08-21T13:18:02;101475.50;;;30.63;33.58
48848;BME280;36611;51.638;5.784;2022-08-21T13:20:37;101473.22;;;30.79;33.13
48848;BME280;36611;51.638;5.784;2022-08-21T13:25:36;101474.44;;;31.08;32.90
48848;BME280;36611;51.638;5.784;2022-08-21T13:28:07;101476.94;;;31.16;32.52
48848;BME280;36611;51.638;5.784;2022-08-21T13:30:39;101481.38;;;31.23;32.56
48848;BME280;36611;51.638;5.784;2022-08-21T13:33:12;101467.66;;;31.28;32.03
48848;BME280;36611;51.638;5.784;2022-08-21T13:38:31;101474.19;;;31.34;31.84
48848;BME280;36611;51.638;5.784;2022-08-21T13:41:03;101471.88;;;31.31;31.89
48848;BME280;36611;51.638;5.784;2022-08-21T13:43:36;101472.81;;;31.25;31.92
48848;BME280;36611;51.638;5.784;2022-08-21T13:46:09;101464.25;;;31.26;31.54
48848;BME280;36611;51.638;5.784;2022-08-21T13:48:37;101471.72;;;31.26;31.67
48848;BME280;36611;51.638;5.784;2022-08-21T13:51:04;101467.72;;;31.22;31.64
48848;BME280;36611;51.638;5.784;2022-08-21T13:56:07;101456.19;;;31.18;31.46
48848;BME280;36611;51.638;5.784;2022-08-21T13:58:43;101448.50;;;31.20;31.28
48848;BME280;36611;51.638;5.784;2022-08-21T14:01:25;101452.31;;;31.26;30.74
48848;BME280;36611;51.638;5.784;2022-08-21T14:04:19;101459.78;;;31.25;30.73
48848;BME280;36611;51.638;5.784;2022-08-21T14:06:46;101454.63;;;31.29;30.88
48848;BME280;36611;51.638;5.784;2022-08-21T14:09:25;101449.22;;;31.34;30.93
48848;BME280;36611;51.638;5.784;2022-08-21T14:11:54;101449.16;;;31.41;30.68
48848;BME280;36611;51.638;5.784;2022-08-21T14:14:31;101448.44;;;31.45;30.44
48848;BME280;36611;51.638;5.784;2022-08-21T14:17:02;101446.50;;;31.46;30.78
48848;BME280;36611;51.638;5.784;2022-08-21T14:19:49;101451.59;;;31.49;30.38
48848;BME280;36611;51.638;5.784;2022-08-21T14:25:11;101442.63;;;31.65;29.87
48848;BME280;36611;51.638;5.784;2022-08-21T14:30:33;101442.72;;;31.77;29.97
48848;BME280;36611;51.638;5.784;2022-08-21T14:33:01;101443.81;;;31.76;29.96
48848;BME280;36611;51.638;5.784;2022-08-21T14:35:43;101442.09;;;31.75;30.00
48848;BME280;36611;51.638;5.784;2022-08-21T14:38:15;101437.25;;;31.70;29.78